VLG2703 LPPR-LEBB
Flight info
| Callsign | VLG2703 |
|---|---|
| Flight time | 0h 51m |
| Altitude | 34000 |
| Route | BELDU DCT ADORO DCT FITSE DCT NUBLO DCT RONSI M190 SNR |
| Aircraft | A320/M-SDE3FGHIRWY/LB1 |
Departure
| Time | 2026-05-01 11:24 |
|---|---|
| Airport | Francisco de Sá Carneiro Airport (LPPR) |
Arrival
| Time | 2026-05-01 12:16 |
|---|---|
| Airport | Bilbao Airport (LEBB) |
| Time | Latitude | Longitude | Altitude | Speed | Heading |
|---|---|---|---|---|---|
| 2026-05-01 10:48 | 41.23593 | -8.67219 | 245 ft | 0 kts | 89° |
| 2026-05-01 11:17 | 41.23593 | -8.67251 | 245 ft | 4 kts | 90° |
| 2026-05-01 11:17 | 41.23594 | -8.67285 | 244 ft | 3 kts | 102° |
| 2026-05-01 11:18 | 41.23601 | -8.67313 | 242 ft | 4 kts | 133° |
| 2026-05-01 11:18 | 41.23623 | -8.67329 | 242 ft | 4 kts | 168° |
| 2026-05-01 11:18 | 41.23630 | -8.67331 | 242 ft | 0 kts | 168° |
| 2026-05-01 11:20 | 41.23620 | -8.67329 | 242 ft | 6 kts | 168° |
| 2026-05-01 11:20 | 41.23565 | -8.67336 | 242 ft | 9 kts | 221° |
| 2026-05-01 11:20 | 41.23512 | -8.67382 | 240 ft | 9 kts | 197° |
| 2026-05-01 11:21 | 41.23449 | -8.67378 | 239 ft | 8 kts | 169° |
| 2026-05-01 11:21 | 41.23396 | -8.67364 | 239 ft | 7 kts | 169° |
| 2026-05-01 11:21 | 41.23349 | -8.67375 | 237 ft | 8 kts | 226° |
| 2026-05-01 11:21 | 41.23330 | -8.67453 | 240 ft | 10 kts | 260° |
| 2026-05-01 11:22 | 41.23315 | -8.67549 | 237 ft | 11 kts | 258° |
| 2026-05-01 11:22 | 41.23308 | -8.67599 | 235 ft | 0 kts | 259° |
| 2026-05-01 11:23 | 41.23306 | -8.67613 | 236 ft | 9 kts | 259° |
| 2026-05-01 11:23 | 41.23301 | -8.67723 | 238 ft | 9 kts | 307° |
| 2026-05-01 11:23 | 41.23459 | -8.67773 | 238 ft | 56 kts | 349° |
| 2026-05-01 11:23 | 41.24075 | -8.67933 | 216 ft | 122 kts | 348° |
| 2026-05-01 11:24 | 41.25084 | -8.68197 | 195 ft | 171 kts | 348° |
| 2026-05-01 11:24 | 41.26302 | -8.68509 | 677 ft | 183 kts | 347° |
| 2026-05-01 11:24 | 41.28831 | -8.69179 | 1953 ft | 199 kts | 348° |
| 2026-05-01 11:25 | 41.30266 | -8.69560 | 2302 ft | 221 kts | 348° |
| 2026-05-01 11:25 | 41.33599 | -8.70437 | 3223 ft | 262 kts | 348° |
| 2026-05-01 11:25 | 41.35419 | -8.70914 | 4042 ft | 269 kts | 349° |
| 2026-05-01 11:26 | 41.37277 | -8.71386 | 4913 ft | 274 kts | 353° |
| 2026-05-01 11:26 | 41.40889 | -8.70043 | 6568 ft | 280 kts | 44° |
| 2026-05-01 11:26 | 41.42048 | -8.67986 | 7357 ft | 281 kts | 69° |
| 2026-05-01 11:27 | 41.42458 | -8.65451 | 8128 ft | 282 kts | 90° |
| 2026-05-01 11:27 | 41.42541 | -8.62820 | 8908 ft | 287 kts | 90° |
| 2026-05-01 11:27 | 41.42622 | -8.60133 | 9675 ft | 293 kts | 90° |
| 2026-05-01 11:27 | 41.42707 | -8.57393 | 10390 ft | 300 kts | 90° |
| 2026-05-01 11:28 | 41.42796 | -8.54517 | 10682 ft | 322 kts | 90° |
| 2026-05-01 11:28 | 41.42894 | -8.51433 | 10921 ft | 344 kts | 90° |
| 2026-05-01 11:28 | 41.43002 | -8.48197 | 11472 ft | 353 kts | 89° |
| 2026-05-01 11:29 | 41.43232 | -8.41577 | 12883 ft | 362 kts | 90° |
| 2026-05-01 11:29 | 41.43348 | -8.38206 | 13577 ft | 366 kts | 90° |
| 2026-05-01 11:29 | 41.43571 | -8.31354 | 14791 ft | 375 kts | 90° |
| 2026-05-01 11:30 | 41.43681 | -8.27867 | 15385 ft | 379 kts | 90° |
| 2026-05-01 11:30 | 41.43790 | -8.24344 | 15970 ft | 383 kts | 90° |
| 2026-05-01 11:30 | 41.43864 | -8.21993 | 16379 ft | 385 kts | 90° |
| 2026-05-01 11:30 | 41.43977 | -8.18403 | 16936 ft | 389 kts | 90° |
| 2026-05-01 11:31 | 41.44089 | -8.14779 | 17521 ft | 393 kts | 90° |
| 2026-05-01 11:31 | 41.44200 | -8.11111 | 18090 ft | 397 kts | 90° |
| 2026-05-01 11:31 | 41.44312 | -8.07417 | 18626 ft | 401 kts | 90° |
| 2026-05-01 11:31 | 41.44462 | -8.02467 | 19272 ft | 406 kts | 90° |
| 2026-05-01 11:32 | 41.44539 | -7.99923 | 19607 ft | 408 kts | 90° |
| 2026-05-01 11:32 | 41.44652 | -7.96129 | 20086 ft | 411 kts | 90° |
| 2026-05-01 11:32 | 41.44761 | -7.92312 | 20569 ft | 415 kts | 90° |
| 2026-05-01 11:32 | 41.44866 | -7.88455 | 21051 ft | 418 kts | 91° |
| 2026-05-01 11:33 | 41.44974 | -7.84571 | 21527 ft | 421 kts | 90° |
| 2026-05-01 11:33 | 41.45086 | -7.80652 | 21979 ft | 424 kts | 90° |
| 2026-05-01 11:33 | 41.45198 | -7.76707 | 22443 ft | 427 kts | 90° |
| 2026-05-01 11:33 | 41.45308 | -7.72731 | 22893 ft | 431 kts | 90° |
| 2026-05-01 11:34 | 41.45415 | -7.68735 | 23325 ft | 434 kts | 90° |
| 2026-05-01 11:34 | 41.45520 | -7.64692 | 23751 ft | 437 kts | 90° |
| 2026-05-01 11:34 | 41.45624 | -7.60630 | 24057 ft | 440 kts | 90° |
| 2026-05-01 11:34 | 41.45725 | -7.56562 | 24132 ft | 440 kts | 90° |
| 2026-05-01 11:35 | 41.45829 | -7.52479 | 24158 ft | 440 kts | 90° |
| 2026-05-01 11:35 | 41.45934 | -7.48410 | 24159 ft | 439 kts | 90° |
| 2026-05-01 11:35 | 41.46038 | -7.44405 | 24157 ft | 439 kts | 90° |
| 2026-05-01 11:35 | 41.46140 | -7.40333 | 24157 ft | 439 kts | 90° |
| 2026-05-01 11:36 | 41.46239 | -7.36255 | 24399 ft | 442 kts | 90° |
| 2026-05-01 11:36 | 41.46334 | -7.32155 | 24796 ft | 444 kts | 91° |
| 2026-05-01 11:36 | 41.46427 | -7.28034 | 25147 ft | 446 kts | 91° |
| 2026-05-01 11:36 | 41.46521 | -7.23889 | 25494 ft | 449 kts | 91° |
| 2026-05-01 11:37 | 41.46616 | -7.19718 | 25848 ft | 451 kts | 90° |
| 2026-05-01 11:37 | 41.46709 | -7.15531 | 26209 ft | 453 kts | 90° |
| 2026-05-01 11:37 | 41.46801 | -7.11330 | 26562 ft | 455 kts | 90° |
| 2026-05-01 11:37 | 41.46892 | -7.07105 | 26896 ft | 457 kts | 91° |
| 2026-05-01 11:38 | 41.46981 | -7.02855 | 27239 ft | 459 kts | 91° |
| 2026-05-01 11:38 | 41.47068 | -6.98590 | 27570 ft | 462 kts | 91° |
| 2026-05-01 11:38 | 41.47153 | -6.94299 | 27895 ft | 464 kts | 91° |
| 2026-05-01 11:38 | 41.47238 | -6.89985 | 28241 ft | 466 kts | 91° |
| 2026-05-01 11:39 | 41.47324 | -6.85648 | 28562 ft | 469 kts | 91° |
| 2026-05-01 11:39 | 41.47412 | -6.81297 | 28858 ft | 471 kts | 90° |
| 2026-05-01 11:39 | 41.47497 | -6.76917 | 29162 ft | 473 kts | 91° |
| 2026-05-01 11:39 | 41.47577 | -6.72583 | 29445 ft | 476 kts | 91° |
| 2026-05-01 11:40 | 41.47657 | -6.68163 | 29726 ft | 478 kts | 91° |
| 2026-05-01 11:40 | 41.47738 | -6.63722 | 30013 ft | 480 kts | 91° |
| 2026-05-01 11:40 | 41.47817 | -6.59263 | 30271 ft | 482 kts | 91° |
| 2026-05-01 11:40 | 41.47893 | -6.54788 | 30512 ft | 484 kts | 91° |
| 2026-05-01 11:41 | 41.47968 | -6.50291 | 30748 ft | 486 kts | 91° |
| 2026-05-01 11:41 | 41.48043 | -6.45790 | 31030 ft | 486 kts | 91° |
| 2026-05-01 11:41 | 41.48112 | -6.41297 | 31413 ft | 483 kts | 91° |
| 2026-05-01 11:41 | 41.48177 | -6.36833 | 31796 ft | 481 kts | 91° |
| 2026-05-01 11:42 | 41.48264 | -6.32375 | 32151 ft | 481 kts | 88° |
| 2026-05-01 11:42 | 41.48710 | -6.27953 | 32486 ft | 482 kts | 79° |
| 2026-05-01 11:42 | 41.49632 | -6.23658 | 32827 ft | 483 kts | 70° |
| 2026-05-01 11:42 | 41.50888 | -6.19506 | 33149 ft | 482 kts | 69° |
| 2026-05-01 11:43 | 41.52152 | -6.15370 | 33498 ft | 481 kts | 69° |
| 2026-05-01 11:43 | 41.53406 | -6.11241 | 33838 ft | 480 kts | 69° |
| 2026-05-01 11:43 | 41.54656 | -6.07107 | 34102 ft | 479 kts | 69° |
| 2026-05-01 11:44 | 41.58350 | -5.94846 | 34159 ft | 472 kts | 69° |
| 2026-05-01 11:44 | 41.60800 | -5.86710 | 34160 ft | 472 kts | 69° |
| 2026-05-01 11:45 | 41.63238 | -5.78571 | 34169 ft | 472 kts | 70° |
| 2026-05-01 11:45 | 41.65660 | -5.70435 | 34150 ft | 471 kts | 69° |
| 2026-05-01 11:46 | 41.68143 | -5.62332 | 34165 ft | 471 kts | 64° |
| 2026-05-01 11:46 | 41.69844 | -5.58561 | 34167 ft | 478 kts | 53° |
| 2026-05-01 11:46 | 41.72034 | -5.55181 | 34167 ft | 484 kts | 43° |
| 2026-05-01 11:47 | 41.77608 | -5.50086 | 34162 ft | 490 kts | 22° |
| 2026-05-01 11:47 | 41.83862 | -5.46553 | 34166 ft | 491 kts | 21° |
| 2026-05-01 11:48 | 41.90151 | -5.42984 | 34165 ft | 491 kts | 22° |
| 2026-05-01 11:48 | 41.96438 | -5.39391 | 34165 ft | 491 kts | 22° |
| 2026-05-01 11:49 | 42.02725 | -5.35802 | 34158 ft | 491 kts | 22° |
| 2026-05-01 11:49 | 42.09007 | -5.32212 | 34164 ft | 491 kts | 22° |
| 2026-05-01 11:50 | 42.15296 | -5.28614 | 34170 ft | 490 kts | 22° |
| 2026-05-01 11:50 | 42.21567 | -5.25008 | 34169 ft | 489 kts | 22° |
| 2026-05-01 11:51 | 42.27822 | -5.21397 | 34168 ft | 489 kts | 22° |
| 2026-05-01 11:51 | 42.34086 | -5.17785 | 34176 ft | 489 kts | 22° |
| 2026-05-01 11:52 | 42.40354 | -5.14176 | 34173 ft | 490 kts | 22° |
| 2026-05-01 11:52 | 42.46618 | -5.10550 | 34171 ft | 490 kts | 22° |
| 2026-05-01 11:53 | 42.52877 | -5.06898 | 34174 ft | 490 kts | 22° |
| 2026-05-01 11:53 | 42.59150 | -5.03236 | 34170 ft | 491 kts | 22° |
| 2026-05-01 11:54 | 42.65427 | -4.99580 | 34169 ft | 491 kts | 22° |
| 2026-05-01 11:54 | 42.71700 | -4.95918 | 34168 ft | 491 kts | 22° |
| 2026-05-01 11:55 | 42.77953 | -4.92258 | 34165 ft | 481 kts | 22° |
| 2026-05-01 11:55 | 42.83978 | -4.88689 | 33824 ft | 469 kts | 25° |
| 2026-05-01 11:56 | 42.86746 | -4.86256 | 32546 ft | 480 kts | 41° |
| 2026-05-01 11:56 | 42.89030 | -4.82877 | 31255 ft | 491 kts | 50° |
| 2026-05-01 11:56 | 42.91205 | -4.79287 | 30265 ft | 486 kts | 50° |
| 2026-05-01 11:56 | 42.93335 | -4.75758 | 29167 ft | 476 kts | 50° |
| 2026-05-01 11:57 | 42.95424 | -4.72309 | 28107 ft | 467 kts | 50° |
| 2026-05-01 11:57 | 42.97463 | -4.68961 | 27508 ft | 449 kts | 50° |
| 2026-05-01 11:57 | 42.99428 | -4.65749 | 26939 ft | 433 kts | 50° |
| 2026-05-01 11:57 | 43.01329 | -4.62649 | 26386 ft | 418 kts | 50° |
| 2026-05-01 11:58 | 43.03141 | -4.59691 | 25878 ft | 405 kts | 51° |
| 2026-05-01 11:58 | 43.04919 | -4.56780 | 25366 ft | 396 kts | 50° |
| 2026-05-01 11:58 | 43.08417 | -4.51026 | 24415 ft | 391 kts | 51° |
| 2026-05-01 11:59 | 43.10147 | -4.48176 | 23953 ft | 390 kts | 51° |
| 2026-05-01 11:59 | 43.11902 | -4.45286 | 23437 ft | 389 kts | 51° |
| 2026-05-01 11:59 | 43.13625 | -4.42446 | 22978 ft | 386 kts | 51° |
| 2026-05-01 12:00 | 43.16749 | -4.37284 | 22139 ft | 379 kts | 51° |
| 2026-05-01 12:00 | 43.18425 | -4.34513 | 21703 ft | 377 kts | 51° |
| 2026-05-01 12:00 | 43.21752 | -4.29009 | 20796 ft | 373 kts | 51° |
| 2026-05-01 12:01 | 43.23405 | -4.26263 | 20322 ft | 372 kts | 51° |
| 2026-05-01 12:01 | 43.25052 | -4.23529 | 19859 ft | 372 kts | 51° |
| 2026-05-01 12:01 | 43.26703 | -4.20791 | 19384 ft | 372 kts | 51° |
| 2026-05-01 12:01 | 43.28352 | -4.18056 | 18906 ft | 373 kts | 51° |
| 2026-05-01 12:02 | 43.30003 | -4.15312 | 18423 ft | 373 kts | 51° |
| 2026-05-01 12:02 | 43.31656 | -4.12557 | 17895 ft | 373 kts | 51° |
| 2026-05-01 12:02 | 43.33302 | -4.09808 | 17416 ft | 372 kts | 51° |
| 2026-05-01 12:02 | 43.34940 | -4.07072 | 16930 ft | 370 kts | 51° |
| 2026-05-01 12:03 | 43.36572 | -4.04343 | 16474 ft | 369 kts | 51° |
| 2026-05-01 12:03 | 43.38200 | -4.01621 | 16003 ft | 368 kts | 51° |
| 2026-05-01 12:03 | 43.39819 | -3.98905 | 15538 ft | 367 kts | 51° |
| 2026-05-01 12:03 | 43.41437 | -3.96194 | 15067 ft | 366 kts | 51° |
| 2026-05-01 12:04 | 43.43039 | -3.93478 | 14604 ft | 365 kts | 54° |
| 2026-05-01 12:04 | 43.44317 | -3.90482 | 14154 ft | 362 kts | 68° |
| 2026-05-01 12:04 | 43.45086 | -3.87209 | 13680 ft | 358 kts | 81° |
| 2026-05-01 12:04 | 43.45382 | -3.83832 | 13222 ft | 354 kts | 87° |
| 2026-05-01 12:05 | 43.45591 | -3.80471 | 12754 ft | 351 kts | 87° |
| 2026-05-01 12:05 | 43.46008 | -3.73823 | 11846 ft | 347 kts | 87° |
| 2026-05-01 12:05 | 43.46216 | -3.70502 | 11280 ft | 348 kts | 87° |
| 2026-05-01 12:06 | 43.46422 | -3.67197 | 10811 ft | 346 kts | 88° |
| 2026-05-01 12:06 | 43.46624 | -3.63908 | 10379 ft | 343 kts | 87° |
| 2026-05-01 12:06 | 43.46821 | -3.60696 | 10247 ft | 331 kts | 88° |
| 2026-05-01 12:06 | 43.47010 | -3.57599 | 10124 ft | 319 kts | 88° |
| 2026-05-01 12:07 | 43.47193 | -3.54605 | 10004 ft | 308 kts | 88° |
| 2026-05-01 12:07 | 43.47368 | -3.51712 | 9825 ft | 299 kts | 88° |
| 2026-05-01 12:07 | 43.47540 | -3.48865 | 9471 ft | 297 kts | 88° |
| 2026-05-01 12:07 | 43.47709 | -3.46039 | 9098 ft | 295 kts | 88° |
| 2026-05-01 12:08 | 43.47875 | -3.43231 | 8721 ft | 293 kts | 88° |
| 2026-05-01 12:08 | 43.48040 | -3.40451 | 8359 ft | 290 kts | 89° |
| 2026-05-01 12:08 | 43.48203 | -3.37686 | 7974 ft | 288 kts | 88° |
| 2026-05-01 12:08 | 43.48331 | -3.34960 | 7458 ft | 282 kts | 94° |
| 2026-05-01 12:09 | 43.48020 | -3.32331 | 6825 ft | 276 kts | 111° |
| 2026-05-01 12:09 | 43.47212 | -3.29979 | 6154 ft | 270 kts | 127° |
| 2026-05-01 12:09 | 43.46036 | -3.27991 | 5434 ft | 267 kts | 134° |
| 2026-05-01 12:09 | 43.44835 | -3.26092 | 5008 ft | 256 kts | 133° |
| 2026-05-01 12:10 | 43.43715 | -3.24320 | 4843 ft | 235 kts | 134° |
| 2026-05-01 12:10 | 43.41647 | -3.21102 | 4633 ft | 217 kts | 134° |
| 2026-05-01 12:10 | 43.40684 | -3.19562 | 4539 ft | 208 kts | 129° |
| 2026-05-01 12:11 | 43.39291 | -3.16232 | 4086 ft | 193 kts | 119° |
| 2026-05-01 12:11 | 43.38723 | -3.14674 | 4009 ft | 175 kts | 119° |
| 2026-05-01 12:11 | 43.38205 | -3.13231 | 3956 ft | 157 kts | 119° |
| 2026-05-01 12:12 | 43.37745 | -3.11966 | 3657 ft | 148 kts | 120° |
| 2026-05-01 12:12 | 43.37277 | -3.10697 | 3260 ft | 149 kts | 120° |
| 2026-05-01 12:12 | 43.36812 | -3.09433 | 2885 ft | 147 kts | 118° |
| 2026-05-01 12:12 | 43.36354 | -3.08172 | 2666 ft | 146 kts | 118° |
| 2026-05-01 12:13 | 43.35912 | -3.06954 | 2492 ft | 140 kts | 118° |
| 2026-05-01 12:13 | 43.35474 | -3.05761 | 2302 ft | 141 kts | 118° |
| 2026-05-01 12:13 | 43.35029 | -3.04559 | 2133 ft | 139 kts | 118° |
| 2026-05-01 12:13 | 43.34600 | -3.03339 | 1919 ft | 145 kts | 117° |
| 2026-05-01 12:14 | 43.34139 | -3.02102 | 1661 ft | 146 kts | 119° |
| 2026-05-01 12:14 | 43.33681 | -3.00841 | 1503 ft | 148 kts | 114° |
| 2026-05-01 12:14 | 43.33219 | -2.99565 | 1306 ft | 150 kts | 115° |
| 2026-05-01 12:14 | 43.32748 | -2.98287 | 1084 ft | 150 kts | 115° |
| 2026-05-01 12:15 | 43.32286 | -2.97016 | 834 ft | 149 kts | 111° |
| 2026-05-01 12:15 | 43.31826 | -2.95734 | 675 ft | 150 kts | 115° |
| 2026-05-01 12:15 | 43.31353 | -2.94458 | 465 ft | 148 kts | 115° |
| 2026-05-01 12:15 | 43.30903 | -2.93219 | 280 ft | 142 kts | 117° |
| 2026-05-01 12:16 | 43.30470 | -2.92042 | 128 ft | 128 kts | 116° |
| 2026-05-01 12:16 | 43.30178 | -2.91249 | 123 ft | 50 kts | 117° |
| 2026-05-01 12:16 | 43.30096 | -2.90960 | 127 ft | 21 kts | 90° |
| 2026-05-01 12:16 | 43.30087 | -2.90809 | 128 ft | 11 kts | 97° |
| 2026-05-01 12:17 | 43.30079 | -2.90721 | 131 ft | 8 kts | 97° |
| 2026-05-01 12:17 | 43.30076 | -2.90677 | 132 ft | 6 kts | 92° |
| 2026-05-01 12:17 | 43.30091 | -2.90634 | 132 ft | 4 kts | 43° |
| 2026-05-01 12:17 | 43.30119 | -2.90608 | 132 ft | 7 kts | 33° |
| 2026-05-01 12:18 | 43.30179 | -2.90555 | 132 ft | 13 kts | 32° |
| 2026-05-01 12:18 | 43.30256 | -2.90524 | 132 ft | 9 kts | 343° |
| 2026-05-01 12:18 | 43.30301 | -2.90573 | 132 ft | 9 kts | 320° |
| 2026-05-01 12:18 | 43.30338 | -2.90613 | 132 ft | 6 kts | 323° |
| 2026-05-01 12:19 | 43.30378 | -2.90599 | 132 ft | 6 kts | 28° |
| 2026-05-01 12:19 | 43.30408 | -2.90579 | 132 ft | 2 kts | 26° |
| 2026-05-01 12:19 | 43.30411 | -2.90577 | 132 ft | 0 kts | 26° |